Time;durP1;ratioP1;P1;durP2;ratioP2;P2;SDS_P1;SDS_P2;PMS_P1;PMS_P2;Temp;Humidity;BMP_temperature;BMP_pressure;BME280_temperature;BME280_humidity;BME280_pressure;Samples;Min_cycle;Max_cycle;Signal;HPM_P1;HPM_P2
2022/10/08 00:01:11;;;;;;;7.93;4.77;;;;;;;14.98;64.84;97704.22;5047139;28;20191;-81
2022/10/08 00:03:42;;;;;;;7.33;4.70;;;;;;;14.98;65.10;97703.41;5047403;28;20209;-80
2022/10/08 00:06:14;;;;;;;11.27;4.87;;;;;;;14.93;64.97;97706.25;5047138;28;20621;-80
2022/10/08 00:08:45;;;;;;;8.10;4.70;;;;;;;15.02;64.88;97697.09;5046560;28;20392;-82
2022/10/08 00:11:15;;;;;;;7.73;4.87;;;;;;;14.92;65.24;97708.94;5045472;28;20198;-82
2022/10/08 00:13:46;;;;;;;9.17;4.60;;;;;;;14.90;65.43;97701.19;5046797;28;20764;-80
2022/10/08 00:16:23;;;;;;;5.77;4.73;;;;;;;14.87;65.49;97695.28;5046906;28;20186;-80
2022/10/08 00:18:53;;;;;;;6.30;4.30;;;;;;;14.72;65.82;97683.91;5048118;28;20193;-80
2022/10/08 00:21:23;;;;;;;5.60;4.43;;;;;;;14.62;65.86;97693.97;5050089;28;20190;-80
2022/10/08 00:23:51;;;;;;;4.70;4.27;;;;;;;14.55;66.76;97683.91;5050701;28;20285;-80
2022/10/08 00:26:23;;;;;;;10.30;4.30;;;;;;;14.51;66.31;97658.94;5047579;28;20280;-80
2022/10/08 00:28:52;;;;;;;7.17;4.20;;;;;;;14.64;66.04;97673.88;5046774;28;20182;-79
2022/10/08 00:31:23;;;;;;;7.43;4.43;;;;;;;14.68;65.74;97674.56;5046714;28;20792;-79
2022/10/08 00:33:53;;;;;;;8.97;4.17;;;;;;;14.53;66.80;97668.38;5046668;28;20640;-80
2022/10/08 00:36:22;;;;;;;7.00;4.20;;;;;;;14.46;66.57;97653.13;5046768;28;20200;-80
2022/10/08 00:39:05;;;;;;;8.10;4.50;;;;;;;14.52;66.33;97666.69;5046501;28;20281;-80
2022/10/08 00:41:37;;;;;;;7.97;4.43;;;;;;;14.51;66.86;97662.38;5045603;28;20261;-80
2022/10/08 00:44:41;;;;;;;10.47;5.07;;;;;;;14.61;66.45;97663.59;5046905;28;20284;-79
2022/10/08 00:47:26;;;;;;;8.00;5.27;;;;;;;14.64;65.87;97663.44;5046447;28;20192;-77
2022/10/08 00:49:57;;;;;;;7.07;4.57;;;;;;;14.39;66.61;97667.38;5046657;28;20213;-79
2022/10/08 00:52:28;;;;;;;5.47;4.30;;;;;;;14.27;67.01;97658.41;5049228;28;20197;-78
2022/10/08 00:54:56;;;;;;;11.80;6.07;;;;;;;14.27;66.94;97647.13;5053552;28;20255;-80
2022/10/08 00:57:25;;;;;;;9.57;5.70;;;;;;;14.34;67.09;97649.38;5055817;28;20186;-80
2022/10/08 00:59:52;;;;;;;9.07;5.70;;;;;;;14.54;66.10;97654.44;5050619;28;20189;-80
2022/10/08 01:02:19;;;;;;;10.13;5.90;;;;;;;14.42;66.24;97655.06;5050278;28;20270;-78
2022/10/08 01:04:47;;;;;;;8.23;5.27;;;;;;;14.38;66.44;97645.72;5050088;28;20614;-80
2022/10/08 01:07:37;;;;;;;14.20;6.30;;;;;;;14.33;66.74;97631.22;5050217;28;20189;-77
2022/10/08 01:10:41;;;;;;;6.37;5.00;;;;;;;14.29;67.03;97653.13;5041596;28;20228;-78
2022/10/08 01:13:33;;;;;;;8.57;5.63;;;;;;;14.23;67.27;97656.03;5047738;28;20228;-80
2022/10/08 01:16:15;;;;;;;7.93;5.80;;;;;;;14.21;66.87;97656.09;5048367;28;20360;-78
2022/10/08 01:18:51;;;;;;;8.63;5.73;;;;;;;14.13;67.17;97655.66;5049615;28;20190;-80
2022/10/08 01:21:33;;;;;;;8.67;5.13;;;;;;;13.97;68.03;97641.72;5051806;28;20609;-78
2022/10/08 01:25:31;;;;;;;11.40;5.53;;;;;;;13.97;67.99;97641.72;5052590;28;20220;-78
2022/10/08 01:27:20;;;;;;;5.50;4.47;;;;;;;13.50;68.78;97649.19;5054577;28;20297;-81
2022/10/08 01:29:49;;;;;;;8.83;5.50;;;;;;;13.43;68.92;97641.78;5055410;28;20196;-82
2022/10/08 01:32:20;;;;;;;9.90;5.43;;;;;;;13.53;68.95;97624.81;5058182;28;20195;-81
2022/10/08 01:35:12;;;;;;;6.67;5.40;;;;;;;13.66;68.56;97639.75;5056357;28;20227;-80
2022/10/08 01:37:42;;;;;;;7.30;5.43;;;;;;;13.86;67.48;97649.19;5054327;28;20192;-80
2022/10/08 01:40:15;;;;;;;7.47;5.10;;;;;;;13.74;68.15;97636.78;5050237;28;20204;-79
2022/10/08 01:42:43;;;;;;;8.93;5.50;;;;;;;13.93;67.46;97642.75;5049155;28;20676;-81
2022/10/08 01:45:18;;;;;;;8.03;5.70;;;;;;;13.77;68.30;97647.03;5049437;28;20288;-80
2022/10/08 01:47:48;;;;;;;8.07;5.00;;;;;;;13.19;69.58;97596.13;5049835;28;20210;-82
2022/10/08 01:50:22;;;;;;;6.47;5.23;;;;;;;13.50;69.71;97637.94;5049510;28;20199;-81
2022/10/08 01:52:57;;;;;;;14.23;5.83;;;;;;;13.34;69.98;97637.84;5049369;28;20280;-79
2022/10/08 01:55:33;;;;;;;8.27;5.47;;;;;;;13.05;70.60;97627.94;5057982;28;20223;-79
2022/10/08 01:58:05;;;;;;;9.63;5.90;;;;;;;12.95;70.89;97629.25;5049077;28;20291;-79
2022/10/08 02:00:36;;;;;;;7.00;5.53;;;;;;;13.00;70.69;97628.13;5049048;28;20214;-81
2022/10/08 02:03:03;;;;;;;6.97;5.53;;;;;;;12.74;72.16;97636.25;5050214;28;20257;-81
2022/10/08 02:05:34;;;;;;;6.87;5.23;;;;;;;12.83;70.99;97630.66;5054411;28;20198;-80
2022/10/08 02:08:03;;;;;;;6.33;5.13;;;;;;;12.72;71.79;97632.88;5051643;28;20278;-80
2022/10/08 02:10:30;;;;;;;10.20;5.93;;;;;;;12.70;71.73;97637.31;5049029;28;20187;-79
2022/10/08 02:12:57;;;;;;;9.43;6.50;;;;;;;12.58;71.48;97618.81;5049416;28;20213;-80
2022/10/08 02:15:42;;;;;;;7.57;6.33;;;;;;;12.59;72.03;97628.31;5049495;28;20223;-84
2022/10/08 02:18:12;;;;;;;9.53;6.23;;;;;;;12.58;72.14;97635.25;5048797;28;20565;-79
2022/10/08 02:20:51;;;;;;;10.07;5.83;;;;;;;12.48;72.17;97621.00;5049011;28;20186;-81
2022/10/08 02:23:42;;;;;;;8.50;6.10;;;;;;;12.57;72.11;97643.94;5048419;28;20253;-79
2022/10/08 02:26:13;;;;;;;11.23;5.93;;;;;;;12.56;71.81;97623.25;5048629;28;20268;-79
2022/10/08 02:28:43;;;;;;;6.00;5.40;;;;;;;12.68;70.97;97633.09;5045191;28;20632;-81
2022/10/08 02:31:40;;;;;;;10.53;6.80;;;;;;;12.93;70.60;97642.31;5028539;28;20196;-81
2022/10/08 02:34:13;;;;;;;8.20;5.27;;;;;;;12.98;70.33;97647.31;5052562;28;20268;-81
2022/10/08 02:36:44;;;;;;;7.40;5.73;;;;;;;12.86;70.79;97635.72;5049304;28;20232;-81
2022/10/08 02:39:15;;;;;;;9.33;5.60;;;;;;;12.81;70.67;97637.69;5049499;28;20276;-82
2022/10/08 02:42:22;;;;;;;8.90;6.30;;;;;;;12.81;71.12;97632.50;5047613;28;20634;-80
2022/10/08 02:45:45;;;;;;;9.73;6.30;;;;;;;12.69;70.68;97642.59;5049419;28;20188;-82
2022/10/08 02:49:05;;;;;;;8.10;5.20;;;;;;;12.51;71.03;97640.81;5048838;28;20209;-82
2022/10/08 02:52:26;;;;;;;7.13;6.23;;;;;;;12.39;71.54;97642.16;5048771;28;20286;-81
2022/10/08 02:55:45;;;;;;;9.77;5.47;;;;;;;12.27;72.47;97640.09;5049282;28;20217;-82
2022/10/08 02:59:09;;;;;;;8.30;6.20;;;;;;;12.44;71.60;97641.97;5048036;28;20187;-79
2022/10/08 03:02:30;;;;;;;9.03;5.93;;;;;;;12.36;71.88;97638.88;5048361;28;20186;-81
2022/10/08 03:05:51;;;;;;;9.43;6.83;;;;;;;12.27;72.64;97629.72;5046386;28;20198;-80
2022/10/08 03:09:12;;;;;;;6.00;5.40;;;;;;;12.39;72.33;97631.78;5048897;28;20713;-82
2022/10/08 03:12:32;;;;;;;8.93;6.13;;;;;;;12.41;71.98;97622.16;5048350;28;20290;-79
2022/10/08 03:15:53;;;;;;;6.30;5.30;;;;;;;12.46;72.08;97620.22;5047634;28;20215;-82
2022/10/08 03:19:13;;;;;;;9.73;5.43;;;;;;;12.50;71.69;97632.16;5048851;28;20217;-81
2022/10/08 03:22:34;;;;;;;9.23;5.40;;;;;;;12.72;70.26;97627.69;5050215;28;20207;-80
2022/10/08 03:25:55;;;;;;;7.33;6.37;;;;;;;12.87;70.06;97633.97;5048201;28;20188;-80
2022/10/08 03:29:15;;;;;;;11.60;5.77;;;;;;;12.99;69.92;97636.84;5048904;28;20211;-81
2022/10/08 03:32:36;;;;;;;7.13;5.43;;;;;;;12.78;69.54;97627.41;5049039;28;20595;-81
2022/10/08 03:35:57;;;;;;;10.10;6.33;;;;;;;12.69;69.52;97622.66;5049150;28;20859;-81
2022/10/08 03:39:17;;;;;;;10.20;6.03;;;;;;;12.35;70.70;97624.19;5046506;28;20576;-81
2022/10/08 03:42:38;;;;;;;6.57;5.53;;;;;;;12.16;71.27;97611.13;5047621;28;20278;-81
2022/10/08 03:45:58;;;;;;;9.57;5.60;;;;;;;12.16;71.27;97618.94;5047804;28;20709;-81
2022/10/08 03:49:19;;;;;;;8.20;5.63;;;;;;;12.16;70.93;97605.94;5046280;28;20215;-81
2022/10/08 03:52:40;;;;;;;9.23;6.93;;;;;;;12.26;70.84;97608.09;5048292;28;20605;-78
2022/10/08 03:56:00;;;;;;;8.60;5.97;;;;;;;12.38;70.69;97609.31;5063463;28;20287;-81
2022/10/08 03:59:21;;;;;;;10.23;6.40;;;;;;;12.21;71.11;97601.41;5049307;28;20621;-81
2022/10/08 04:02:41;;;;;;;12.67;7.07;;;;;;;11.75;72.62;97605.09;5045719;28;20278;-81
2022/10/08 04:06:02;;;;;;;9.03;6.40;;;;;;;11.57;74.24;97610.16;5047690;28;20274;-81
2022/10/08 04:09:23;;;;;;;10.30;7.13;;;;;;;11.84;73.81;97601.28;5046803;28;20241;-80
2022/10/08 04:12:43;;;;;;;13.03;6.20;;;;;;;12.12;72.90;97594.84;5047368;28;20568;-81
2022/10/08 04:16:04;;;;;;;10.67;6.20;;;;;;;12.33;71.85;97598.28;5048575;28;20595;-82
2022/10/08 04:19:24;;;;;;;8.00;5.57;;;;;;;12.41;70.83;97596.19;5047309;28;20210;-82
2022/10/08 04:22:47;;;;;;;7.83;5.77;;;;;;;12.38;71.75;97590.28;5047458;28;20189;-82
2022/10/08 04:26:08;;;;;;;9.77;6.50;;;;;;;12.34;71.61;97587.00;5046873;28;20191;-82
2022/10/08 04:29:28;;;;;;;12.27;6.40;;;;;;;12.47;71.15;97593.31;5051255;28;20193;-81
2022/10/08 04:32:49;;;;;;;7.77;5.63;;;;;;;12.39;71.15;97587.63;5050549;28;20183;-81
2022/10/08 04:36:09;;;;;;;8.90;6.40;;;;;;;12.21;71.42;97588.44;5051120;28;20311;-80
2022/10/08 04:39:30;;;;;;;7.43;6.17;;;;;;;12.16;72.35;97582.59;5050830;28;20194;-82
2022/10/08 04:42:51;;;;;;;9.40;5.43;;;;;;;12.27;71.41;97586.41;5050450;28;20190;-81
2022/10/08 04:46:11;;;;;;;6.80;6.10;;;;;;;12.47;71.11;97585.53;5052631;28;20707;-80
2022/10/08 04:49:32;;;;;;;10.67;5.83;;;;;;;12.54;71.37;97584.34;5052522;28;20202;-81
2022/10/08 04:52:53;;;;;;;9.17;6.23;;;;;;;12.78;69.64;97590.19;5055601;28;20209;-80
2022/10/08 04:56:13;;;;;;;13.47;7.63;;;;;;;13.14;69.14;97592.88;5058589;28;20222;-80
2022/10/08 04:59:34;;;;;;;11.73;6.33;;;;;;;13.15;68.81;97597.19;5056020;28;20263;-81
2022/10/08 05:02:55;;;;;;;7.03;5.43;;;;;;;12.98;68.95;97598.75;5055194;28;20197;-80
2022/10/08 05:06:22;;;;;;;13.13;6.33;;;;;;;12.99;69.35;97589.19;5055769;28;20692;-81
2022/10/08 05:09:42;;;;;;;7.83;6.03;;;;;;;13.35;68.22;97582.31;5058602;28;20232;-81
2022/10/08 05:13:03;;;;;;;7.60;5.63;;;;;;;13.25;68.85;97595.81;5051861;28;20674;-82
2022/10/08 05:16:23;;;;;;;8.70;6.30;;;;;;;13.44;68.31;97592.25;5053089;28;20224;-81
2022/10/08 05:19:44;;;;;;;8.57;5.87;;;;;;;13.78;66.97;97596.66;5066681;28;20294;-80
2022/10/08 05:23:05;;;;;;;8.80;5.73;;;;;;;14.03;66.30;97589.31;5052996;28;20286;-82
2022/10/08 05:26:11;;;;;;;8.43;5.57;;;;;;;14.25;65.71;97602.94;5051378;28;20188;-79
2022/10/08 05:29:32;;;;;;;9.43;5.13;;;;;;;14.44;65.14;97590.66;5050876;28;20240;-80
2022/10/08 05:32:52;;;;;;;11.07;5.37;;;;;;;14.66;64.27;97606.84;5050972;28;20203;-79
2022/10/08 05:36:13;;;;;;;8.43;6.10;;;;;;;14.64;64.35;97603.50;5051153;28;20724;-81
2022/10/08 05:39:34;;;;;;;10.50;5.93;;;;;;;14.54;64.94;97604.91;5050420;28;20200;-80
2022/10/08 05:42:54;;;;;;;7.47;5.87;;;;;;;14.54;65.26;97604.06;5050608;28;20232;-80
2022/10/08 05:46:15;;;;;;;9.67;6.40;;;;;;;14.15;65.76;97575.66;5047751;28;20203;-81
2022/10/08 05:49:35;;;;;;;7.27;5.83;;;;;;;14.77;65.51;97600.22;5050901;28;20557;-82
2022/10/08 05:52:56;;;;;;;18.03;6.63;;;;;;;15.10;63.25;97595.81;5050372;28;20190;-80
2022/10/08 05:56:19;;;;;;;8.63;5.53;;;;;;;15.02;63.97;97611.03;5056570;28;20359;-82
2022/10/08 05:59:40;;;;;;;6.97;4.93;;;;;;;15.16;63.79;97621.56;5056418;28;20688;-79
2022/10/08 06:03:01;;;;;;;9.63;5.97;;;;;;;15.50;62.83;97617.97;5058600;28;20252;-81
2022/10/08 06:06:21;;;;;;;12.23;6.90;;;;;;;15.88;62.12;97630.53;5054064;28;20190;-82
2022/10/08 06:09:43;;;;;;;6.47;5.73;;;;;;;15.93;60.90;97633.69;5065522;28;20291;-82
2022/10/08 06:13:05;;;;;;;8.60;5.20;;;;;;;15.61;62.57;97624.25;5049911;28;20236;-82
2022/10/08 06:16:38;;;;;;;7.00;4.90;;;;;;;15.73;62.81;97631.38;5049926;28;20233;-80
2022/10/08 06:19:58;;;;;;;6.33;4.70;;;;;;;15.91;62.49;97646.00;5051221;28;20331;-81
2022/10/08 06:23:19;;;;;;;6.13;4.50;;;;;;;15.86;62.95;97642.81;5053070;28;20279;-81
2022/10/08 06:26:40;;;;;;;7.87;5.40;;;;;;;16.21;61.99;97632.94;5054821;28;20193;-80
2022/10/08 06:30:01;;;;;;;9.13;5.50;;;;;;;16.51;61.10;97633.75;5052458;28;20214;-81
2022/10/08 06:33:21;;;;;;;7.53;5.23;;;;;;;16.74;61.02;97629.75;5048464;28;20242;-80
2022/10/08 06:36:42;;;;;;;9.60;5.10;;;;;;;16.96;60.07;97632.78;5031789;28;20283;-81
2022/10/08 06:40:03;;;;;;;9.93;5.13;;;;;;;16.99;60.55;97635.19;5049057;28;20229;-81
2022/10/08 06:43:24;;;;;;;8.80;4.93;;;;;;;17.05;60.60;97640.03;5050957;28;20658;-80
2022/10/08 06:46:45;;;;;;;11.00;4.47;;;;;;;17.25;60.04;97638.81;5049729;28;20225;-79
2022/10/08 06:50:07;;;;;;;6.90;4.70;;;;;;;17.66;59.00;97637.88;5050372;28;20195;-77
2022/10/08 06:53:28;;;;;;;11.47;4.67;;;;;;;17.78;58.11;97644.13;5063028;28;20194;-79
2022/10/08 06:56:55;;;;;;;7.37;4.13;;;;;;;17.76;57.67;97631.09;5051390;28;20245;-80
2022/10/08 07:00:18;;;;;;;5.67;4.10;;;;;;;17.91;57.67;97637.13;5047970;28;20232;-77
2022/10/08 07:03:39;;;;;;;7.00;4.43;;;;;;;18.31;56.00;97640.56;5049531;28;21219;-81
2022/10/08 07:07:00;;;;;;;8.43;4.90;;;;;;;18.66;55.26;97632.03;5048117;28;20192;-78
2022/10/08 07:10:23;;;;;;;8.47;5.70;;;;;;;19.00;53.73;97638.38;5049380;28;20228;-81
2022/10/08 07:13:44;;;;;;;12.17;5.80;;;;;;;19.26;52.77;97629.53;5049764;28;20219;-81
2022/10/08 07:17:05;;;;;;;5.77;3.97;;;;;;;19.31;50.56;97618.69;5049552;28;20736;-78
2022/10/08 07:20:28;;;;;;;10.33;5.17;;;;;;;19.29;49.30;97591.69;5048798;28;20197;-82
2022/10/08 07:23:52;;;;;;;9.13;5.00;;;;;;;19.43;51.58;97613.44;5047434;28;20239;-78
2022/10/08 07:27:13;;;;;;;10.73;6.27;;;;;;;18.99;54.42;97625.38;5062766;28;20201;-82
2022/10/08 07:30:33;;;;;;;10.67;5.43;;;;;;;18.91;53.23;97622.47;5050481;28;20196;-82
2022/10/08 07:33:54;;;;;;;5.23;3.97;;;;;;;19.00;51.88;97625.25;5050815;28;20573;-81
2022/10/08 07:37:15;;;;;;;7.03;4.00;;;;;;;19.08;51.47;97620.31;5049211;28;20667;-81
2022/10/08 07:40:35;;;;;;;8.40;6.73;;;;;;;19.42;49.80;97616.16;5048409;28;20287;-80
2022/10/08 07:43:59;;;;;;;8.80;5.83;;;;;;;19.73;49.09;97618.25;5049995;28;20201;-80
2022/10/08 07:47:25;;;;;;;10.23;4.37;;;;;;;19.95;48.23;97612.25;5050104;28;20193;-81
2022/10/08 07:50:46;;;;;;;6.43;4.17;;;;;;;20.10;47.57;97611.13;5049666;28;20185;-78
2022/10/08 07:54:07;;;;;;;4.33;3.13;;;;;;;19.94;46.63;97606.16;5053531;28;20189;-79
2022/10/08 07:57:29;;;;;;;6.57;3.47;;;;;;;20.13;46.58;97613.53;5050441;28;20204;-77
2022/10/08 08:00:50;;;;;;;7.80;4.20;;;;;;;20.20;46.63;97602.47;5049129;28;20201;-82
2022/10/08 08:04:11;;;;;;;6.57;3.33;;;;;;;20.14;47.09;97618.66;5050442;28;20228;-81
2022/10/08 08:07:32;;;;;;;6.30;3.63;;;;;;;20.20;46.68;97617.41;5046622;28;20759;-78
2022/10/08 08:10:53;;;;;;;4.83;2.97;;;;;;;19.71;47.21;97582.53;5047743;28;20236;-81
2022/10/08 08:14:13;;;;;;;6.13;4.00;;;;;;;19.90;47.63;97615.25;5048185;28;20201;-81
2022/10/08 08:17:34;;;;;;;7.33;3.00;;;;;;;19.08;48.79;97628.19;5047648;28;20192;-82
2022/10/08 08:20:55;;;;;;;6.47;4.27;;;;;;;19.34;48.59;97616.72;5048391;28;20282;-80
2022/10/08 08:24:15;;;;;;;4.37;2.70;;;;;;;19.61;47.20;97613.91;5048952;28;20189;-83
2022/10/08 08:27:36;;;;;;;3.83;3.17;;;;;;;19.86;47.24;97616.41;5049095;28;20680;-82
2022/10/08 08:30:59;;;;;;;5.83;3.90;;;;;;;20.28;46.03;97615.88;5048523;28;20611;-82
2022/10/08 08:34:19;;;;;;;7.57;3.23;;;;;;;20.54;45.29;97611.28;5048672;28;20217;-81
2022/10/08 08:37:40;;;;;;;4.53;3.30;;;;;;;20.64;44.75;97603.50;5049657;28;20296;-83
2022/10/08 08:41:01;;;;;;;7.90;3.80;;;;;;;20.94;44.46;97599.31;5051548;28;20549;-82
2022/10/08 08:44:22;;;;;;;6.57;3.20;;;;;;;20.77;44.60;97599.78;5048281;28;20194;-82
2022/10/08 08:47:11;;;;;;;3.37;3.07;;;;;;;20.88;44.79;97591.91;5049796;28;20187;-82
2022/10/08 08:50:15;;;;;;;5.03;2.90;;;;;;;20.78;44.31;97593.56;5049302;28;20235;-81
2022/10/08 08:53:36;;;;;;;4.87;3.00;;;;;;;20.69;44.95;97588.19;5057059;28;20186;-81
2022/10/08 08:56:56;;;;;;;4.97;3.10;;;;;;;20.51;45.50;97579.06;5059057;28;20224;-84
2022/10/08 09:00:21;;;;;;;3.03;2.63;;;;;;;20.50;45.34;97562.47;5048539;28;20520;-81
2022/10/08 09:03:42;;;;;;;4.77;2.97;;;;;;;20.59;45.55;97590.69;5051154;28;20761;-82
2022/10/08 09:07:02;;;;;;;4.23;2.53;;;;;;;20.86;45.08;97580.66;5049763;28;20193;-81
2022/10/08 09:09:49;;;;;;;5.67;3.43;;;;;;;21.21;44.61;97570.00;5031716;28;20223;-81
2022/10/08 09:12:24;;;;;;;3.77;3.10;;;;;;;21.41;43.96;97566.59;5063741;28;20203;-81
2022/10/08 09:14:55;;;;;;;3.73;2.60;;;;;;;21.17;44.49;97565.06;5049267;28;20244;-80
2022/10/08 09:17:38;;;;;;;8.47;3.70;;;;;;;21.46;43.96;97564.44;5049631;28;20275;-81
2022/10/08 09:20:06;;;;;;;5.60;3.40;;;;;;;21.45;43.58;97568.00;5049905;28;20182;-87
2022/10/08 09:22:38;;;;;;;2.87;2.43;;;;;;;21.29;43.04;97545.69;5049758;28;20270;-84
2022/10/08 09:25:14;;;;;;;3.97;2.60;;;;;;;21.45;42.77;97552.19;5050375;28;20213;-80
2022/10/08 09:27:46;;;;;;;7.07;2.97;;;;;;;21.66;42.39;97562.78;5047135;28;20190;-77
2022/10/08 09:30:53;;;;;;;5.53;3.07;;;;;;;21.89;42.09;97543.31;5047291;28;20296;-79
2022/10/08 09:33:30;;;;;;;3.47;3.17;;;;;;;22.25;41.29;97539.41;5048937;28;20214;-81
2022/10/08 09:35:58;;;;;;;6.07;2.70;;;;;;;22.41;41.12;97540.63;5049089;28;20662;-78
2022/10/08 09:38:34;;;;;;;3.40;2.90;;;;;;;22.04;40.93;97535.94;5047228;28;20316;-79
2022/10/08 09:41:16;;;;;;;2.53;1.83;;;;;;;21.52;42.09;97534.94;5047121;28;20190;-78
2022/10/08 09:43:44;;;;;;;4.20;3.10;;;;;;;21.30;42.83;97536.81;5047339;28;20213;-79
2022/10/08 09:46:29;;;;;;;3.43;2.20;;;;;;;21.55;41.29;97539.13;5047284;28;20226;-79
2022/10/08 09:49:33;;;;;;;5.17;2.63;;;;;;;21.50;41.68;97534.22;5048472;28;20758;-78
2022/10/08 09:52:05;;;;;;;2.77;2.37;;;;;;;21.37;43.03;97515.09;5047914;28;20194;-79
2022/10/08 09:54:40;;;;;;;4.27;2.90;;;;;;;21.61;41.90;97521.00;5047857;28;20194;-78
2022/10/08 09:57:07;;;;;;;6.07;3.50;;;;;;;21.65;41.51;97518.94;5049330;28;20558;-77
2022/10/08 09:59:41;;;;;;;3.07;2.50;;;;;;;21.62;41.72;97516.56;5046343;28;20737;-79
2022/10/08 10:02:36;;;;;;;3.80;2.80;;;;;;;21.69;41.71;97509.81;5046609;28;20270;-77
2022/10/08 10:05:06;;;;;;;4.33;2.57;;;;;;;21.91;41.00;97504.47;5048526;28;20194;-78
2022/10/08 10:07:42;;;;;;;4.00;3.57;;;;;;;22.14;40.01;97502.53;5048358;28;20219;-79
2022/10/08 10:10:20;;;;;;;3.03;2.10;;;;;;;22.15;39.60;97491.88;5046793;28;20261;-78
2022/10/08 10:12:53;;;;;;;3.73;2.37;;;;;;;22.28;39.55;97494.25;5047861;28;20195;-78
2022/10/08 10:15:30;;;;;;;5.03;2.50;;;;;;;22.36;39.18;97481.28;5047666;28;20219;-77
2022/10/08 10:18:01;;;;;;;4.53;2.70;;;;;;;22.54;38.83;97496.38;5047713;28;20286;-78
2022/10/08 10:20:41;;;;;;;3.03;2.40;;;;;;;22.62;37.88;97477.25;5047746;28;20549;-77
2022/10/08 10:23:08;;;;;;;3.73;2.10;;;;;;;22.40;38.43;97482.69;5047817;28;20192;-77
2022/10/08 10:25:59;;;;;;;3.20;2.23;;;;;;;22.25;38.70;97471.63;5047380;28;20663;-78
2022/10/08 10:28:40;;;;;;;3.10;2.30;;;;;;;22.31;38.73;97476.38;5047536;28;20279;-78
2022/10/08 10:31:24;;;;;;;2.83;1.83;;;;;;;22.13;38.86;97472.69;5046662;28;20311;-76
2022/10/08 10:33:53;;;;;;;3.27;2.70;;;;;;;22.21;38.57;97464.94;5047425;28;20215;-77
2022/10/08 10:36:24;;;;;;;3.73;2.77;;;;;;;22.39;38.82;97459.88;5047683;28;20230;-79
2022/10/08 10:39:02;;;;;;;3.40;2.27;;;;;;;22.52;39.00;97458.66;5045993;28;20683;-79
2022/10/08 10:41:37;;;;;;;3.97;2.30;;;;;;;22.40;39.52;97457.09;5046948;28;20223;-77
2022/10/08 10:44:21;;;;;;;2.70;2.47;;;;;;;21.80;40.40;97426.22;5047575;28;20190;-77
2022/10/08 10:46:58;;;;;;;2.03;1.83;;;;;;;21.47;41.24;97444.88;5047634;28;20193;-80
2022/10/08 10:49:33;;;;;;;3.80;2.03;;;;;;;21.28;41.37;97455.25;5049194;28;20900;-78
2022/10/08 10:52:18;;;;;;;3.53;2.30;;;;;;;21.34;41.54;97460.03;5045560;28;20603;-77
2022/10/08 10:54:54;;;;;;;2.27;2.03;;;;;;;21.40;40.89;97450.75;5046811;28;20248;-77
2022/10/08 10:57:39;;;;;;;2.30;2.10;;;;;;;21.46;41.58;97442.34;5046790;28;20277;-76
2022/10/08 11:00:44;;;;;;;4.73;2.63;;;;;;;21.73;41.24;97440.06;5047447;28;20274;-79
2022/10/08 11:03:30;;;;;;;4.53;2.40;;;;;;;21.88;40.46;97427.41;4975208;28;20650;-78
2022/10/08 11:06:24;;;;;;;2.70;2.30;;;;;;;22.06;39.74;97426.69;5042884;28;20251;-83
2022/10/08 11:09:02;;;;;;;4.90;2.37;;;;;;;22.26;39.51;97417.88;5046311;28;20608;-76
2022/10/08 11:11:44;;;;;;;2.23;2.10;;;;;;;22.26;40.31;97409.97;5046996;28;20266;-77
2022/10/08 11:14:11;;;;;;;5.70;2.87;;;;;;;22.43;40.06;97403.22;5046664;28;20284;-78
2022/10/08 11:16:58;;;;;;;2.63;2.30;;;;;;;22.35;39.39;97374.88;5045607;28;20252;-78
2022/10/08 11:19:27;;;;;;;3.50;1.90;;;;;;;21.99;40.18;97401.78;5059117;28;20729;-77
2022/10/08 11:22:17;;;;;;;3.50;2.50;;;;;;;21.94;40.94;97393.44;5041184;28;20294;-79
2022/10/08 11:25:31;;;;;;;3.90;2.30;;;;;;;22.21;39.93;97398.97;5030778;28;20265;-77
2022/10/08 11:28:53;;;;;;;2.40;2.10;;;;;;;21.91;41.02;97391.06;5046888;28;20187;-78
2022/10/08 11:31:44;;;;;;;2.73;2.50;;;;;;;21.75;41.08;97385.38;5057682;28;20620;-78
2022/10/08 11:34:33;;;;;;;3.10;2.27;;;;;;;21.93;40.86;97390.94;5046796;28;20187;-78
2022/10/08 11:37:09;;;;;;;3.77;2.57;;;;;;;21.97;40.45;97385.25;5045698;28;20227;-81
2022/10/08 11:39:51;;;;;;;3.20;2.90;;;;;;;21.80;40.46;97346.28;5045769;28;20206;-77
2022/10/08 11:42:24;;;;;;;5.17;2.87;;;;;;;22.16;39.84;97380.06;5046862;28;20202;-78
2022/10/08 11:44:51;;;;;;;4.40;2.23;;;;;;;21.79;40.20;97356.00;5046254;28;20749;-77
2022/10/08 11:47:42;;;;;;;3.10;2.30;;;;;;;22.07;39.64;97367.66;5048752;28;20729;-77
2022/10/08 11:50:31;;;;;;;4.93;3.83;;;;;;;22.44;39.18;97360.03;5045299;28;20623;-78
2022/10/08 11:53:13;;;;;;;5.10;2.80;;;;;;;22.72;38.51;97353.16;5046305;28;20194;-78
2022/10/08 11:55:58;;;;;;;2.93;2.30;;;;;;;22.60;38.53;97348.00;5046285;28;20376;-78
2022/10/08 11:58:29;;;;;;;2.37;2.17;;;;;;;22.40;38.95;97343.59;5047915;28;20180;-77
2022/10/08 12:01:04;;;;;;;4.20;2.10;;;;;;;22.48;39.04;97353.50;5045547;28;20507;-77
2022/10/08 12:03:38;;;;;;;3.77;2.00;;;;;;;22.56;38.84;97333.38;5047274;28;20261;-79
2022/10/08 12:06:29;;;;;;;5.10;2.37;;;;;;;22.32;39.07;97339.97;5046463;28;20276;-79
2022/10/08 12:08:58;;;;;;;3.33;2.20;;;;;;;22.39;38.91;97343.75;5045905;28;20244;-78
2022/10/08 12:11:32;;;;;;;6.43;2.20;;;;;;;22.53;39.04;97341.56;5046794;28;20851;-78
2022/10/08 12:14:11;;;;;;;4.00;2.50;;;;;;;22.67;38.68;97335.91;5046020;28;20223;-78
2022/10/08 12:16:56;;;;;;;2.77;2.57;;;;;;;22.39;38.76;97334.03;5045930;28;20220;-80
2022/10/08 12:19:35;;;;;;;4.50;2.47;;;;;;;22.42;38.78;97336.38;5027892;28;20637;-79
2022/10/08 12:22:16;;;;;;;4.13;2.20;;;;;;;21.97;39.33;97335.13;5046281;28;20286;-78
2022/10/08 12:24:43;;;;;;;2.20;2.00;;;;;;;21.99;39.24;97340.31;5047234;28;20262;-79
2022/10/08 12:27:16;;;;;;;3.00;2.30;;;;;;;21.85;39.50;97328.28;5044387;28;20397;-79
2022/10/08 12:30:13;;;;;;;3.53;2.70;;;;;;;22.10;39.25;97332.28;5046494;28;20216;-79
2022/10/08 12:32:42;;;;;;;2.20;2.00;;;;;;;22.43;38.83;97324.03;5045854;28;20250;-78
2022/10/08 12:35:35;;;;;;;3.30;2.37;;;;;;;22.65;38.14;97329.94;5046226;28;20609;-78
2022/10/08 12:38:05;;;;;;;3.87;3.17;;;;;;;22.86;37.98;97323.69;5037274;28;20254;-78
2022/10/08 12:40:50;;;;;;;2.50;2.30;;;;;;;22.97;37.01;97323.56;5029806;28;20190;-79
2022/10/08 12:43:30;;;;;;;3.67;2.10;;;;;;;22.83;37.26;97326.63;5044895;28;20203;-82
2022/10/08 12:46:24;;;;;;;2.83;2.30;;;;;;;22.90;36.86;97322.44;5046386;28;20203;-79
2022/10/08 12:49:05;;;;;;;4.00;1.90;;;;;;;22.69;37.10;97314.63;5049478;28;20269;-79
2022/10/08 12:52:00;;;;;;;2.30;2.10;;;;;;;22.73;36.88;97317.84;5049849;28;20681;-81
2022/10/08 12:54:29;;;;;;;3.03;2.40;;;;;;;22.78;37.48;97318.25;5049728;28;20279;-77
2022/10/08 12:56:57;;;;;;;2.53;2.30;;;;;;;22.83;36.97;97310.78;5049827;28;20224;-81
2022/10/08 12:59:26;;;;;;;3.27;2.47;;;;;;;22.77;36.99;97317.44;5051888;28;20203;-79
2022/10/08 13:01:53;;;;;;;3.70;2.17;;;;;;;22.75;37.85;97306.16;5052916;28;20189;-79
2022/10/08 13:04:24;;;;;;;3.17;2.00;;;;;;;22.69;37.00;97309.34;5052684;28;20188;-80
2022/10/08 13:06:53;;;;;;;4.13;2.10;;;;;;;22.67;37.64;97292.00;5051513;28;20194;-80
2022/10/08 13:09:34;;;;;;;2.30;2.10;;;;;;;22.45;38.03;97307.09;5052613;28;20247;-84
2022/10/08 13:12:06;;;;;;;5.23;2.33;;;;;;;22.35;38.14;97295.69;5050210;28;20812;-80
2022/10/08 13:14:38;;;;;;;2.17;1.97;;;;;;;22.27;38.13;97297.34;5054834;28;20227;-80
2022/10/08 13:17:05;;;;;;;2.40;2.20;;;;;;;22.31;37.93;97298.72;5051852;28;20282;-82
2022/10/08 13:19:38;;;;;;;4.33;2.17;;;;;;;22.23;38.06;97301.22;5052407;28;20223;-81
2022/10/08 13:22:25;;;;;;;2.40;2.20;;;;;;;22.24;38.32;97289.66;5051943;28;20239;-82
2022/10/08 13:24:52;;;;;;;4.03;2.30;;;;;;;22.37;37.89;97287.63;5049457;28;20576;-82
2022/10/08 13:27:24;;;;;;;2.97;2.40;;;;;;;22.36;37.81;97289.41;5052970;28;20197;-83
2022/10/08 13:29:52;;;;;;;4.53;2.67;;;;;;;22.23;39.07;97280.94;5052613;28;20214;-81
2022/10/08 13:32:34;;;;;;;4.83;3.73;;;;;;;21.88;39.72;97296.38;5052260;28;20198;-80
2022/10/08 13:35:03;;;;;;;2.73;2.40;;;;;;;21.65;40.09;97286.97;5049432;28;20756;-80
2022/10/08 13:37:34;;;;;;;2.70;2.20;;;;;;;21.57;39.91;97286.78;5047726;28;20245;-79
2022/10/08 13:40:04;;;;;;;4.80;2.30;;;;;;;21.63;40.76;97276.56;5049328;28;20199;-81
2022/10/08 13:42:40;;;;;;;2.27;2.07;;;;;;;21.86;39.43;97285.94;5049137;28;20607;-81